sensor_id;sensor_type;location;lat;lon;timestamp;temperature;humidity
13496;DHT22;6820;49.374;8.452;2023-08-24T00:00:39;25.20;99.99
13496;DHT22;6820;49.374;8.452;2023-08-24T00:04:41;25.19;99.99
13496;DHT22;6820;49.374;8.452;2023-08-24T00:08:43;25.12;99.99
13496;DHT22;6820;49.374;8.452;2023-08-24T00:12:45;25.16;99.99
13496;DHT22;6820;49.374;8.452;2023-08-24T00:16:47;25.12;99.99
13496;DHT22;6820;49.374;8.452;2023-08-24T00:20:49;25.04;99.99
13496;DHT22;6820;49.374;8.452;2023-08-24T00:24:50;24.98;99.99
13496;DHT22;6820;49.374;8.452;2023-08-24T00:28:52;24.84;99.99
13496;DHT22;6820;49.374;8.452;2023-08-24T00:32:54;24.79;99.99
13496;DHT22;6820;49.374;8.452;2023-08-24T00:36:56;24.77;99.99
13496;DHT22;6820;49.374;8.452;2023-08-24T00:40:58;24.66;99.99
13496;DHT22;6820;49.374;8.452;2023-08-24T00:45:00;24.52;99.99
13496;DHT22;6820;49.374;8.452;2023-08-24T00:49:02;24.52;99.99
13496;DHT22;6820;49.374;8.452;2023-08-24T00:53:04;24.51;99.99
13496;DHT22;6820;49.374;8.452;2023-08-24T00:57:06;24.42;99.99
13496;DHT22;6820;49.374;8.452;2023-08-24T01:01:07;24.34;99.99
13496;DHT22;6820;49.374;8.452;2023-08-24T01:05:09;24.33;99.99
13496;DHT22;6820;49.374;8.452;2023-08-24T01:09:11;24.24;99.99
13496;DHT22;6820;49.374;8.452;2023-08-24T01:13:13;24.21;99.99
13496;DHT22;6820;49.374;8.452;2023-08-24T01:17:24;24.24;99.99
13496;DHT22;6820;49.374;8.452;2023-08-24T01:21:30;24.24;99.99
13496;DHT22;6820;49.374;8.452;2023-08-24T01:29:37;24.00;99.99
13496;DHT22;6820;49.374;8.452;2023-08-24T01:33:41;24.00;99.99
13496;DHT22;6820;49.374;8.452;2023-08-24T01:37:43;23.97;99.99
13496;DHT22;6820;49.374;8.452;2023-08-24T01:41:44;23.97;99.99
13496;DHT22;6820;49.374;8.452;2023-08-24T01:45:50;23.99;99.99
13496;DHT22;6820;49.374;8.452;2023-08-24T01:49:54;24.04;99.99
13496;DHT22;6820;49.374;8.452;2023-08-24T01:53:57;24.04;99.99
13496;DHT22;6820;49.374;8.452;2023-08-24T01:57:59;24.00;99.99
13496;DHT22;6820;49.374;8.452;2023-08-24T02:02:01;23.97;99.99
13496;DHT22;6820;49.374;8.452;2023-08-24T02:06:04;23.96;99.99
13496;DHT22;6820;49.374;8.452;2023-08-24T02:10:08;23.96;99.99
13496;DHT22;6820;49.374;8.452;2023-08-24T02:14:09;23.97;99.99
13496;DHT22;6820;49.374;8.452;2023-08-24T02:18:11;23.97;99.99
13496;DHT22;6820;49.374;8.452;2023-08-24T02:22:13;23.84;99.99
13496;DHT22;6820;49.374;8.452;2023-08-24T02:26:15;23.54;99.99
13496;DHT22;6820;49.374;8.452;2023-08-24T02:30:17;23.54;99.99
13496;DHT22;6820;49.374;8.452;2023-08-24T02:34:18;23.56;99.99
13496;DHT22;6820;49.374;8.452;2023-08-24T02:38:20;23.60;99.99
13496;DHT22;6820;49.374;8.452;2023-08-24T02:42:22;23.62;99.99
13496;DHT22;6820;49.374;8.452;2023-08-24T02:46:23;23.63;99.99
13496;DHT22;6820;49.374;8.452;2023-08-24T02:50:25;23.67;99.99
13496;DHT22;6820;49.374;8.452;2023-08-24T02:54:26;23.68;99.99
13496;DHT22;6820;49.374;8.452;2023-08-24T02:58:29;23.71;99.99
13496;DHT22;6820;49.374;8.452;2023-08-24T03:02:31;23.62;99.99
13496;DHT22;6820;49.374;8.452;2023-08-24T03:06:32;23.64;99.99
13496;DHT22;6820;49.374;8.452;2023-08-24T03:10:34;23.59;99.99
13496;DHT22;6820;49.374;8.452;2023-08-24T03:14:36;23.54;99.99
13496;DHT22;6820;49.374;8.452;2023-08-24T03:18:38;23.39;99.99
13496;DHT22;6820;49.374;8.452;2023-08-24T03:22:40;23.19;99.99
13496;DHT22;6820;49.374;8.452;2023-08-24T03:26:42;23.21;99.99
13496;DHT22;6820;49.374;8.452;2023-08-24T03:30:48;23.25;99.99
13496;DHT22;6820;49.374;8.452;2023-08-24T03:34:50;23.19;99.99
13496;DHT22;6820;49.374;8.452;2023-08-24T03:38:52;23.18;99.99
13496;DHT22;6820;49.374;8.452;2023-08-24T03:42:54;23.12;99.99
13496;DHT22;6820;49.374;8.452;2023-08-24T03:46:56;23.14;99.99
13496;DHT22;6820;49.374;8.452;2023-08-24T03:50:57;23.23;99.99
13496;DHT22;6820;49.374;8.452;2023-08-24T03:54:59;23.31;99.99
13496;DHT22;6820;49.374;8.452;2023-08-24T03:59:01;23.39;99.99
13496;DHT22;6820;49.374;8.452;2023-08-24T04:03:03;23.47;99.99
13496;DHT22;6820;49.374;8.452;2023-08-24T04:07:05;23.45;99.99
13496;DHT22;6820;49.374;8.452;2023-08-24T04:11:07;23.42;99.99
13496;DHT22;6820;49.374;8.452;2023-08-24T04:15:09;23.34;99.99
13496;DHT22;6820;49.374;8.452;2023-08-24T04:19:11;23.31;99.99
13496;DHT22;6820;49.374;8.452;2023-08-24T04:23:13;23.12;99.99
13496;DHT22;6820;49.374;8.452;2023-08-24T04:27:15;22.91;99.99
13496;DHT22;6820;49.374;8.452;2023-08-24T04:31:16;22.88;99.99
13496;DHT22;6820;49.374;8.452;2023-08-24T04:35:18;22.88;99.99
13496;DHT22;6820;49.374;8.452;2023-08-24T04:39:20;22.88;99.99
13496;DHT22;6820;49.374;8.452;2023-08-24T04:43:22;22.97;99.99
13496;DHT22;6820;49.374;8.452;2023-08-24T04:47:25;22.99;99.99
13496;DHT22;6820;49.374;8.452;2023-08-24T04:51:27;22.94;99.99
13496;DHT22;6820;49.374;8.452;2023-08-24T04:55:29;22.91;99.99
13496;DHT22;6820;49.374;8.452;2023-08-24T04:59:30;22.96;99.99
13496;DHT22;6820;49.374;8.452;2023-08-24T05:03:32;22.99;99.99
13496;DHT22;6820;49.374;8.452;2023-08-24T05:07:34;23.00;99.99
13496;DHT22;6820;49.374;8.452;2023-08-24T05:11:35;22.94;99.99
13496;DHT22;6820;49.374;8.452;2023-08-24T05:15:37;22.93;99.99
13496;DHT22;6820;49.374;8.452;2023-08-24T05:19:38;22.93;99.99
13496;DHT22;6820;49.374;8.452;2023-08-24T05:23:40;22.91;99.99
13496;DHT22;6820;49.374;8.452;2023-08-24T05:27:42;22.88;99.99
13496;DHT22;6820;49.374;8.452;2023-08-24T05:31:44;22.76;99.99
13496;DHT22;6820;49.374;8.452;2023-08-24T05:35:45;22.52;99.99
13496;DHT22;6820;49.374;8.452;2023-08-24T05:39:47;22.27;99.99
13496;DHT22;6820;49.374;8.452;2023-08-24T05:43:49;22.14;99.99
13496;DHT22;6820;49.374;8.452;2023-08-24T05:47:52;22.02;99.99
13496;DHT22;6820;49.374;8.452;2023-08-24T05:51:54;22.02;99.99
13496;DHT22;6820;49.374;8.452;2023-08-24T05:55:59;22.09;99.99
13496;DHT22;6820;49.374;8.452;2023-08-24T06:00:00;22.23;99.99
13496;DHT22;6820;49.374;8.452;2023-08-24T06:04:12;22.46;99.99
13496;DHT22;6820;49.374;8.452;2023-08-24T06:08:14;22.59;99.99
13496;DHT22;6820;49.374;8.452;2023-08-24T06:12:15;22.76;99.99
13496;DHT22;6820;49.374;8.452;2023-08-24T06:16:17;22.84;99.99
13496;DHT22;6820;49.374;8.452;2023-08-24T06:20:19;22.91;99.99
13496;DHT22;6820;49.374;8.452;2023-08-24T06:24:21;23.01;99.99
13496;DHT22;6820;49.374;8.452;2023-08-24T06:28:23;23.07;99.99
13496;DHT22;6820;49.374;8.452;2023-08-24T06:32:24;23.12;99.99
13496;DHT22;6820;49.374;8.452;2023-08-24T06:36:26;23.23;99.99
13496;DHT22;6820;49.374;8.452;2023-08-24T06:40:28;23.37;99.99
13496;DHT22;6820;49.374;8.452;2023-08-24T06:44:31;23.39;99.99
13496;DHT22;6820;49.374;8.452;2023-08-24T06:48:32;23.49;99.99
13496;DHT22;6820;49.374;8.452;2023-08-24T06:52:34;23.57;99.99
13496;DHT22;6820;49.374;8.452;2023-08-24T06:56:35;23.59;99.99
13496;DHT22;6820;49.374;8.452;2023-08-24T07:00:37;23.64;99.99
13496;DHT22;6820;49.374;8.452;2023-08-24T07:04:39;23.75;99.99
13496;DHT22;6820;49.374;8.452;2023-08-24T07:08:41;23.78;99.99
13496;DHT22;6820;49.374;8.452;2023-08-24T07:12:43;23.87;99.99
13496;DHT22;6820;49.374;8.452;2023-08-24T07:16:46;24.00;99.99
13496;DHT22;6820;49.374;8.452;2023-08-24T07:20:48;24.11;99.99
13496;DHT22;6820;49.374;8.452;2023-08-24T07:24:49;24.23;99.99
13496;DHT22;6820;49.374;8.452;2023-08-24T07:28:53;24.45;99.99
13496;DHT22;6820;49.374;8.452;2023-08-24T07:32:55;24.52;99.99
13496;DHT22;6820;49.374;8.452;2023-08-24T07:36:57;24.52;99.99
13496;DHT22;6820;49.374;8.452;2023-08-24T07:40:59;24.46;99.99
13496;DHT22;6820;49.374;8.452;2023-08-24T07:45:00;24.52;99.99
13496;DHT22;6820;49.374;8.452;2023-08-24T07:49:03;24.56;99.99
13496;DHT22;6820;49.374;8.452;2023-08-24T07:53:05;24.68;99.99
13496;DHT22;6820;49.374;8.452;2023-08-24T07:57:07;24.71;99.99
13496;DHT22;6820;49.374;8.452;2023-08-24T08:01:08;24.74;99.99
13496;DHT22;6820;49.374;8.452;2023-08-24T08:05:10;24.82;99.99
13496;DHT22;6820;49.374;8.452;2023-08-24T08:09:12;24.82;99.99
13496;DHT22;6820;49.374;8.452;2023-08-24T08:13:14;24.92;99.99
13496;DHT22;6820;49.374;8.452;2023-08-24T08:17:16;25.07;99.99
13496;DHT22;6820;49.374;8.452;2023-08-24T08:21:17;25.16;99.99
13496;DHT22;6820;49.374;8.452;2023-08-24T08:25:22;25.26;99.99
13496;DHT22;6820;49.374;8.452;2023-08-24T08:29:24;25.51;99.99
13496;DHT22;6820;49.374;8.452;2023-08-24T08:33:26;25.82;99.99
13496;DHT22;6820;49.374;8.452;2023-08-24T08:37:27;26.24;99.99
13496;DHT22;6820;49.374;8.452;2023-08-24T08:41:33;26.53;99.99
13496;DHT22;6820;49.374;8.452;2023-08-24T08:45:39;26.71;99.99
13496;DHT22;6820;49.374;8.452;2023-08-24T08:49:44;26.79;99.99
13496;DHT22;6820;49.374;8.452;2023-08-24T08:53:48;26.73;99.99
13496;DHT22;6820;49.374;8.452;2023-08-24T08:57:50;26.73;99.99
13496;DHT22;6820;49.374;8.452;2023-08-24T09:01:53;26.79;99.99
13496;DHT22;6820;49.374;8.452;2023-08-24T09:05:56;26.93;99.99
13496;DHT22;6820;49.374;8.452;2023-08-24T09:09:58;27.12;99.99
13496;DHT22;6820;49.374;8.452;2023-08-24T09:13:59;27.42;99.99
13496;DHT22;6820;49.374;8.452;2023-08-24T09:18:01;27.48;99.99
13496;DHT22;6820;49.374;8.452;2023-08-24T09:22:03;27.62;99.99
13496;DHT22;6820;49.374;8.452;2023-08-24T09:26:09;27.78;99.99
13496;DHT22;6820;49.374;8.452;2023-08-24T09:30:10;27.90;99.99
13496;DHT22;6820;49.374;8.452;2023-08-24T09:34:13;28.02;99.99
13496;DHT22;6820;49.374;8.452;2023-08-24T09:38:15;28.15;99.99
13496;DHT22;6820;49.374;8.452;2023-08-24T09:42:24;28.28;99.99
13496;DHT22;6820;49.374;8.452;2023-08-24T09:46:29;28.52;99.99
13496;DHT22;6820;49.374;8.452;2023-08-24T09:50:31;28.73;99.99
13496;DHT22;6820;49.374;8.452;2023-08-24T09:54:36;28.87;99.99
13496;DHT22;6820;49.374;8.452;2023-08-24T09:58:38;28.95;99.99
13496;DHT22;6820;49.374;8.452;2023-08-24T10:02:45;29.11;99.99
13496;DHT22;6820;49.374;8.452;2023-08-24T10:06:59;29.14;99.99
13496;DHT22;6820;49.374;8.452;2023-08-24T10:11:07;29.17;99.99
13496;DHT22;6820;49.374;8.452;2023-08-24T10:15:14;29.23;99.99
13496;DHT22;6820;49.374;8.452;2023-08-24T10:19:16;29.37;99.99
13496;DHT22;6820;49.374;8.452;2023-08-24T10:23:19;29.58;99.99
13496;DHT22;6820;49.374;8.452;2023-08-24T10:27:22;29.73;99.99
13496;DHT22;6820;49.374;8.452;2023-08-24T10:31:28;29.86;99.99
13496;DHT22;6820;49.374;8.452;2023-08-24T10:35:31;29.92;99.99
13496;DHT22;6820;49.374;8.452;2023-08-24T10:39:34;30.01;99.99
13496;DHT22;6820;49.374;8.452;2023-08-24T10:43:37;30.11;99.99
13496;DHT22;6820;49.374;8.452;2023-08-24T10:47:45;30.16;99.99
13496;DHT22;6820;49.374;8.452;2023-08-24T10:51:48;30.26;99.99
13496;DHT22;6820;49.374;8.452;2023-08-24T10:55:50;30.36;99.99
13496;DHT22;6820;49.374;8.452;2023-08-24T11:00:12;30.42;99.99
13496;DHT22;6820;49.374;8.452;2023-08-24T11:04:14;30.37;99.99
13496;DHT22;6820;49.374;8.452;2023-08-24T11:08:15;30.36;99.99
13496;DHT22;6820;49.374;8.452;2023-08-24T11:12:17;30.56;99.99
13496;DHT22;6820;49.374;8.452;2023-08-24T11:16:41;30.88;99.99
13496;DHT22;6820;49.374;8.452;2023-08-24T11:20:45;31.15;99.99
13496;DHT22;6820;49.374;8.452;2023-08-24T11:24:48;31.27;99.99
13496;DHT22;6820;49.374;8.452;2023-08-24T11:28:52;31.42;99.99
13496;DHT22;6820;49.374;8.452;2023-08-24T11:32:54;31.64;99.99
13496;DHT22;6820;49.374;8.452;2023-08-24T11:36:56;31.75;99.99
13496;DHT22;6820;49.374;8.452;2023-08-24T11:40:58;31.85;99.99
13496;DHT22;6820;49.374;8.452;2023-08-24T11:44:59;31.97;99.99
13496;DHT22;6820;49.374;8.452;2023-08-24T11:49:01;32.10;99.99
13496;DHT22;6820;49.374;8.452;2023-08-24T11:53:06;32.19;99.99
13496;DHT22;6820;49.374;8.452;2023-08-24T11:57:08;32.31;99.99
13496;DHT22;6820;49.374;8.452;2023-08-24T12:01:10;32.39;99.99
13496;DHT22;6820;49.374;8.452;2023-08-24T12:05:19;32.44;99.99
13496;DHT22;6820;49.374;8.452;2023-08-24T12:09:22;32.50;99.99
13496;DHT22;6820;49.374;8.452;2023-08-24T12:13:25;32.56;99.99
13496;DHT22;6820;49.374;8.452;2023-08-24T12:17:30;32.68;99.99
13496;DHT22;6820;49.374;8.452;2023-08-24T12:21:31;32.81;99.99
13496;DHT22;6820;49.374;8.452;2023-08-24T12:25:43;32.96;99.99
13496;DHT22;6820;49.374;8.452;2023-08-24T12:29:45;33.00;99.99
13496;DHT22;6820;49.374;8.452;2023-08-24T12:33:57;33.00;99.99
13496;DHT22;6820;49.374;8.452;2023-08-24T12:38:02;33.05;99.99
13496;DHT22;6820;49.374;8.452;2023-08-24T12:42:05;33.06;99.99
13496;DHT22;6820;49.374;8.452;2023-08-24T12:46:07;33.09;99.99
13496;DHT22;6820;49.374;8.452;2023-08-24T12:50:09;33.12;99.99
13496;DHT22;6820;49.374;8.452;2023-08-24T12:54:11;33.12;99.99
13496;DHT22;6820;49.374;8.452;2023-08-24T12:58:13;33.17;99.99
13496;DHT22;6820;49.374;8.452;2023-08-24T13:02:15;33.28;99.99
13496;DHT22;6820;49.374;8.452;2023-08-24T13:06:22;33.34;99.99
13496;DHT22;6820;49.374;8.452;2023-08-24T13:10:25;33.47;99.99
13496;DHT22;6820;49.374;8.452;2023-08-24T13:14:27;33.70;99.99
13496;DHT22;6820;49.374;8.452;2023-08-24T13:18:28;34.00;99.99
13496;DHT22;6820;49.374;8.452;2023-08-24T13:22:30;34.28;99.99
13496;DHT22;6820;49.374;8.452;2023-08-24T13:26:32;34.33;99.99
13496;DHT22;6820;49.374;8.452;2023-08-24T13:30:33;34.19;99.99
13496;DHT22;6820;49.374;8.452;2023-08-24T13:34:35;34.27;99.99
13496;DHT22;6820;49.374;8.452;2023-08-24T13:38:37;34.23;99.99
13496;DHT22;6820;49.374;8.452;2023-08-24T13:42:39;33.94;99.99
13496;DHT22;6820;49.374;8.452;2023-08-24T13:46:40;33.71;99.99
13496;DHT22;6820;49.374;8.452;2023-08-24T13:50:42;33.74;99.99
13496;DHT22;6820;49.374;8.452;2023-08-24T13:54:50;33.70;99.99
13496;DHT22;6820;49.374;8.452;2023-08-24T13:59:12;33.52;99.99
13496;DHT22;6820;49.374;8.452;2023-08-24T14:03:14;33.28;99.99
13496;DHT22;6820;49.374;8.452;2023-08-24T14:07:16;32.90;99.99
13496;DHT22;6820;49.374;8.452;2023-08-24T14:11:17;32.54;99.99
13496;DHT22;6820;49.374;8.452;2023-08-24T14:15:19;32.22;99.99
13496;DHT22;6820;49.374;8.452;2023-08-24T14:19:21;31.98;99.99
13496;DHT22;6820;49.374;8.452;2023-08-24T14:23:24;31.76;99.99
13496;DHT22;6820;49.374;8.452;2023-08-24T14:27:25;31.56;99.99
13496;DHT22;6820;49.374;8.452;2023-08-24T14:31:27;31.19;99.99
13496;DHT22;6820;49.374;8.452;2023-08-24T14:35:30;30.64;99.99
13496;DHT22;6820;49.374;8.452;2023-08-24T14:39:34;30.19;99.99
13496;DHT22;6820;49.374;8.452;2023-08-24T14:43:36;29.64;99.99
13496;DHT22;6820;49.374;8.452;2023-08-24T14:47:38;29.23;99.99
13496;DHT22;6820;49.374;8.452;2023-08-24T14:51:40;28.77;99.99
13496;DHT22;6820;49.374;8.452;2023-08-24T14:55:42;28.21;99.99
13496;DHT22;6820;49.374;8.452;2023-08-24T14:59:44;27.91;99.99
13496;DHT22;6820;49.374;8.452;2023-08-24T15:03:45;27.71;99.99
13496;DHT22;6820;49.374;8.452;2023-08-24T15:07:48;27.49;99.99
13496;DHT22;6820;49.374;8.452;2023-08-24T15:11:51;27.58;99.99
13496;DHT22;6820;49.374;8.452;2023-08-24T15:15:53;27.72;99.99
13496;DHT22;6820;49.374;8.452;2023-08-24T15:19:56;27.91;99.99
13496;DHT22;6820;49.374;8.452;2023-08-24T15:23:58;28.15;99.99
13496;DHT22;6820;49.374;8.452;2023-08-24T15:27:59;28.52;99.99
13496;DHT22;6820;49.374;8.452;2023-08-24T15:32:01;28.88;99.99
13496;DHT22;6820;49.374;8.452;2023-08-24T15:36:03;29.03;99.99
13496;DHT22;6820;49.374;8.452;2023-08-24T15:40:05;29.14;99.99
13496;DHT22;6820;49.374;8.452;2023-08-24T15:44:07;29.14;99.99
13496;DHT22;6820;49.374;8.452;2023-08-24T15:48:09;29.21;99.99
13496;DHT22;6820;49.374;8.452;2023-08-24T15:52:10;29.27;99.99
13496;DHT22;6820;49.374;8.452;2023-08-24T15:56:12;29.29;99.99
13496;DHT22;6820;49.374;8.452;2023-08-24T16:00:14;29.26;99.99
13496;DHT22;6820;49.374;8.452;2023-08-24T16:04:16;29.21;99.99
13496;DHT22;6820;49.374;8.452;2023-08-24T16:08:18;29.11;99.99
13496;DHT22;6820;49.374;8.452;2023-08-24T16:12:19;29.07;99.99
13496;DHT22;6820;49.374;8.452;2023-08-24T16:16:21;28.98;99.99
13496;DHT22;6820;49.374;8.452;2023-08-24T16:20:23;28.94;99.99
13496;DHT22;6820;49.374;8.452;2023-08-24T16:24:24;28.80;99.99
13496;DHT22;6820;49.374;8.452;2023-08-24T16:28:29;28.58;99.99
13496;DHT22;6820;49.374;8.452;2023-08-24T16:32:31;28.33;99.99
13496;DHT22;6820;49.374;8.452;2023-08-24T16:36:32;27.99;99.99
13496;DHT22;6820;49.374;8.452;2023-08-24T16:40:34;27.77;99.99
13496;DHT22;6820;49.374;8.452;2023-08-24T16:44:37;27.59;99.99
13496;DHT22;6820;49.374;8.452;2023-08-24T16:48:38;27.33;99.99
13496;DHT22;6820;49.374;8.452;2023-08-24T16:52:40;27.21;99.99
13496;DHT22;6820;49.374;8.452;2023-08-24T16:56:42;27.11;99.99
13496;DHT22;6820;49.374;8.452;2023-08-24T17:00:44;27.02;99.99
13496;DHT22;6820;49.374;8.452;2023-08-24T17:04:45;26.97;99.99
13496;DHT22;6820;49.374;8.452;2023-08-24T17:08:47;26.91;99.99
13496;DHT22;6820;49.374;8.452;2023-08-24T17:12:49;26.90;99.99
13496;DHT22;6820;49.374;8.452;2023-08-24T17:16:51;26.86;99.99
13496;DHT22;6820;49.374;8.452;2023-08-24T17:20:55;26.83;99.99
13496;DHT22;6820;49.374;8.452;2023-08-24T17:24:56;26.76;99.99
13496;DHT22;6820;49.374;8.452;2023-08-24T17:28:59;25.79;99.99
13496;DHT22;6820;49.374;8.452;2023-08-24T17:33:01;24.56;99.99
13496;DHT22;6820;49.374;8.452;2023-08-24T17:37:07;24.29;99.99
13496;DHT22;6820;49.374;8.452;2023-08-24T17:41:35;23.87;99.99
13496;DHT22;6820;49.374;8.452;2023-08-24T17:46:16;23.67;99.99
13496;DHT22;6820;49.374;8.452;2023-08-24T17:55:17;23.56;99.99
13496;DHT22;6820;49.374;8.452;2023-08-24T17:59:51;23.60;99.99
13496;DHT22;6820;49.374;8.452;2023-08-24T18:04:19;23.75;99.99
13496;DHT22;6820;49.374;8.452;2023-08-24T18:08:20;23.87;99.99
13496;DHT22;6820;49.374;8.452;2023-08-24T18:12:23;23.99;99.99
13496;DHT22;6820;49.374;8.452;2023-08-24T18:16:25;24.11;99.99
13496;DHT22;6820;49.374;8.452;2023-08-24T18:20:27;24.18;99.99
13496;DHT22;6820;49.374;8.452;2023-08-24T18:24:29;24.19;99.99
13496;DHT22;6820;49.374;8.452;2023-08-24T18:28:31;24.21;99.99
13496;DHT22;6820;49.374;8.452;2023-08-24T18:32:32;24.24;99.99
13496;DHT22;6820;49.374;8.452;2023-08-24T18:36:34;24.29;99.99
13496;DHT22;6820;49.374;8.452;2023-08-24T18:40:40;24.26;99.99
13496;DHT22;6820;49.374;8.452;2023-08-24T18:44:42;24.23;99.99
13496;DHT22;6820;49.374;8.452;2023-08-24T18:48:44;24.16;99.99
13496;DHT22;6820;49.374;8.452;2023-08-24T18:52:46;24.14;99.99
13496;DHT22;6820;49.374;8.452;2023-08-24T18:56:47;24.09;99.99
13496;DHT22;6820;49.374;8.452;2023-08-24T19:00:50;24.09;99.99
13496;DHT22;6820;49.374;8.452;2023-08-24T19:04:53;24.05;99.99
13496;DHT22;6820;49.374;8.452;2023-08-24T19:08:55;24.04;99.99
13496;DHT22;6820;49.374;8.452;2023-08-24T19:12:57;24.00;99.99
13496;DHT22;6820;49.374;8.452;2023-08-24T19:16:59;24.02;99.99
13496;DHT22;6820;49.374;8.452;2023-08-24T19:21:00;24.06;99.99
13496;DHT22;6820;49.374;8.452;2023-08-24T19:25:02;24.04;99.99
13496;DHT22;6820;49.374;8.452;2023-08-24T19:29:04;23.93;99.99
13496;DHT22;6820;49.374;8.452;2023-08-24T19:33:08;23.86;99.99
13496;DHT22;6820;49.374;8.452;2023-08-24T19:37:10;23.90;99.99
13496;DHT22;6820;49.374;8.452;2023-08-24T19:41:11;23.89;99.99
13496;DHT22;6820;49.374;8.452;2023-08-24T19:45:13;23.90;99.99
13496;DHT22;6820;49.374;8.452;2023-08-24T19:49:15;23.89;99.99
13496;DHT22;6820;49.374;8.452;2023-08-24T19:53:16;23.90;99.99
13496;DHT22;6820;49.374;8.452;2023-08-24T19:57:20;23.96;99.99
13496;DHT22;6820;49.374;8.452;2023-08-24T20:01:21;23.94;99.99
13496;DHT22;6820;49.374;8.452;2023-08-24T20:05:23;23.93;99.99
13496;DHT22;6820;49.374;8.452;2023-08-24T20:09:25;23.96;99.99
13496;DHT22;6820;49.374;8.452;2023-08-24T20:13:27;23.94;99.99
13496;DHT22;6820;49.374;8.452;2023-08-24T20:17:29;23.86;99.99
13496;DHT22;6820;49.374;8.452;2023-08-24T20:21:31;23.74;99.99
13496;DHT22;6820;49.374;8.452;2023-08-24T20:25:37;23.75;99.99
13496;DHT22;6820;49.374;8.452;2023-08-24T20:29:38;23.74;99.99
13496;DHT22;6820;49.374;8.452;2023-08-24T20:33:43;23.77;99.99
13496;DHT22;6820;49.374;8.452;2023-08-24T20:37:45;23.79;99.99
13496;DHT22;6820;49.374;8.452;2023-08-24T20:41:47;23.79;99.99
13496;DHT22;6820;49.374;8.452;2023-08-24T20:45:49;23.81;99.99
13496;DHT22;6820;49.374;8.452;2023-08-24T20:49:51;23.82;99.99
13496;DHT22;6820;49.374;8.452;2023-08-24T20:53:53;23.86;99.99
13496;DHT22;6820;49.374;8.452;2023-08-24T20:57:55;23.81;99.99
13496;DHT22;6820;49.374;8.452;2023-08-24T21:01:59;23.81;99.99
13496;DHT22;6820;49.374;8.452;2023-08-24T21:06:04;23.81;99.99
13496;DHT22;6820;49.374;8.452;2023-08-24T21:10:06;23.78;99.99
13496;DHT22;6820;49.374;8.452;2023-08-24T21:14:08;23.79;99.99
13496;DHT22;6820;49.374;8.452;2023-08-24T21:18:10;23.79;99.99
13496;DHT22;6820;49.374;8.452;2023-08-24T21:22:11;23.78;99.99
13496;DHT22;6820;49.374;8.452;2023-08-24T21:26:14;23.78;99.99
13496;DHT22;6820;49.374;8.452;2023-08-24T21:30:15;23.72;99.99
13496;DHT22;6820;49.374;8.452;2023-08-24T21:34:18;23.72;99.99
13496;DHT22;6820;49.374;8.452;2023-08-24T21:38:20;23.74;99.99
13496;DHT22;6820;49.374;8.452;2023-08-24T21:42:25;23.69;99.99
13496;DHT22;6820;49.374;8.452;2023-08-24T21:46:30;23.67;99.99
13496;DHT22;6820;49.374;8.452;2023-08-24T21:50:34;23.63;99.99
13496;DHT22;6820;49.374;8.452;2023-08-24T21:54:37;23.57;99.99
13496;DHT22;6820;49.374;8.452;2023-08-24T21:58:39;23.56;99.99
13496;DHT22;6820;49.374;8.452;2023-08-24T22:02:41;23.59;99.99
13496;DHT22;6820;49.374;8.452;2023-08-24T22:06:43;23.57;99.99
13496;DHT22;6820;49.374;8.452;2023-08-24T22:10:44;23.57;99.99
13496;DHT22;6820;49.374;8.452;2023-08-24T22:14:48;23.54;99.99
13496;DHT22;6820;49.374;8.452;2023-08-24T22:18:51;23.52;99.99
13496;DHT22;6820;49.374;8.452;2023-08-24T22:22:53;23.42;99.99
13496;DHT22;6820;49.374;8.452;2023-08-24T22:26:54;23.41;99.99
13496;DHT22;6820;49.374;8.452;2023-08-24T22:30:56;23.42;99.99
13496;DHT22;6820;49.374;8.452;2023-08-24T22:34:58;23.42;99.99
13496;DHT22;6820;49.374;8.452;2023-08-24T22:39:00;23.44;99.99
13496;DHT22;6820;49.374;8.452;2023-08-24T22:43:02;23.44;99.99
13496;DHT22;6820;49.374;8.452;2023-08-24T22:47:03;23.44;99.99
13496;DHT22;6820;49.374;8.452;2023-08-24T22:51:05;23.42;99.99
13496;DHT22;6820;49.374;8.452;2023-08-24T22:55:08;23.42;99.99
13496;DHT22;6820;49.374;8.452;2023-08-24T22:59:10;23.41;99.99
13496;DHT22;6820;49.374;8.452;2023-08-24T23:03:11;23.39;99.99
13496;DHT22;6820;49.374;8.452;2023-08-24T23:07:13;23.39;99.99
13496;DHT22;6820;49.374;8.452;2023-08-24T23:11:16;23.38;99.99
13496;DHT22;6820;49.374;8.452;2023-08-24T23:15:18;23.34;99.99
13496;DHT22;6820;49.374;8.452;2023-08-24T23:19:20;23.31;99.99
13496;DHT22;6820;49.374;8.452;2023-08-24T23:23:21;23.22;99.99
13496;DHT22;6820;49.374;8.452;2023-08-24T23:27:23;23.18;99.99
13496;DHT22;6820;49.374;8.452;2023-08-24T23:31:24;23.12;99.99
13496;DHT22;6820;49.374;8.452;2023-08-24T23:35:27;23.09;99.99
13496;DHT22;6820;49.374;8.452;2023-08-24T23:39:28;23.07;99.99
13496;DHT22;6820;49.374;8.452;2023-08-24T23:43:30;23.03;99.99
13496;DHT22;6820;49.374;8.452;2023-08-24T23:47:32;23.00;99.99
13496;DHT22;6820;49.374;8.452;2023-08-24T23:51:33;22.99;99.99
13496;DHT22;6820;49.374;8.452;2023-08-24T23:55:40;22.99;99.99
13496;DHT22;6820;49.374;8.452;2023-08-24T23:59:42;23.00;99.99
